sensor_id;sensor_type;location;lat;lon;timestamp;pressure;altitude;pressure_sealevel;temperature;humidity
9059;BME280;4564;42.034;25.834;2023-02-21T00:01:13;100617.41;;;4.60;69.90
9059;BME280;4564;42.034;25.834;2023-02-21T00:03:57;100611.06;;;4.61;70.55
9059;BME280;4564;42.034;25.834;2023-02-21T00:06:42;100597.47;;;4.73;70.45
9059;BME280;4564;42.034;25.834;2023-02-21T00:09:26;100587.13;;;4.78;70.17
9059;BME280;4564;42.034;25.834;2023-02-21T00:12:10;100593.81;;;4.74;69.75
9059;BME280;4564;42.034;25.834;2023-02-21T00:14:56;100585.84;;;4.82;69.80
9059;BME280;4564;42.034;25.834;2023-02-21T00:17:40;100578.63;;;4.92;70.02
9059;BME280;4564;42.034;25.834;2023-02-21T00:20:23;100580.59;;;4.99;69.38
9059;BME280;4564;42.034;25.834;2023-02-21T00:23:07;100583.59;;;4.87;68.81
9059;BME280;4564;42.034;25.834;2023-02-21T00:25:51;100583.63;;;4.68;69.81
9059;BME280;4564;42.034;25.834;2023-02-21T00:28:35;100573.44;;;4.52;69.85
9059;BME280;4564;42.034;25.834;2023-02-21T00:31:21;100569.63;;;4.35;70.89
9059;BME280;4564;42.034;25.834;2023-02-21T00:34:05;100566.94;;;4.26;72.02
9059;BME280;4564;42.034;25.834;2023-02-21T00:36:50;100564.50;;;4.13;73.29
9059;BME280;4564;42.034;25.834;2023-02-21T00:39:34;100561.25;;;4.19;73.67
9059;BME280;4564;42.034;25.834;2023-02-21T00:42:18;100549.25;;;4.23;72.94
9059;BME280;4564;42.034;25.834;2023-02-21T00:45:02;100552.94;;;4.41;72.51
9059;BME280;4564;42.034;25.834;2023-02-21T00:47:48;100546.16;;;4.47;72.35
9059;BME280;4564;42.034;25.834;2023-02-21T00:50:32;100543.44;;;4.56;72.34
9059;BME280;4564;42.034;25.834;2023-02-21T00:53:15;100535.25;;;4.58;72.25
9059;BME280;4564;42.034;25.834;2023-02-21T00:55:59;100532.81;;;4.64;72.19
9059;BME280;4564;42.034;25.834;2023-02-21T00:58:43;100534.69;;;4.54;70.73
9059;BME280;4564;42.034;25.834;2023-02-21T01:01:27;100537.38;;;4.26;71.42
9059;BME280;4564;42.034;25.834;2023-02-21T01:04:12;100522.25;;;4.25;72.31
9059;BME280;4564;42.034;25.834;2023-02-21T01:06:56;100518.28;;;4.38;71.84
9059;BME280;4564;42.034;25.834;2023-02-21T01:09:40;100523.66;;;4.38;72.07
9059;BME280;4564;42.034;25.834;2023-02-21T01:12:24;100512.22;;;4.46;72.16
9059;BME280;4564;42.034;25.834;2023-02-21T01:15:07;100518.31;;;4.48;71.62
9059;BME280;4564;42.034;25.834;2023-02-21T01:17:52;100508.13;;;4.42;71.19
9059;BME280;4564;42.034;25.834;2023-02-21T01:20:37;100510.66;;;4.34;71.27
9059;BME280;4564;42.034;25.834;2023-02-21T01:23:21;100519.13;;;4.29;71.49
9059;BME280;4564;42.034;25.834;2023-02-21T01:26:07;100503.59;;;4.23;72.34
9059;BME280;4564;42.034;25.834;2023-02-21T01:28:52;100500.47;;;4.28;72.76
9059;BME280;4564;42.034;25.834;2023-02-21T01:31:36;100492.69;;;4.34;72.84
9059;BME280;4564;42.034;25.834;2023-02-21T01:34:20;100493.25;;;4.28;73.62
9059;BME280;4564;42.034;25.834;2023-02-21T01:37:05;100487.88;;;4.38;73.51
9059;BME280;4564;42.034;25.834;2023-02-21T01:39:49;100487.31;;;4.34;73.62
9059;BME280;4564;42.034;25.834;2023-02-21T01:42:33;100493.13;;;4.39;73.40
9059;BME280;4564;42.034;25.834;2023-02-21T01:45:28;100505.13;;;4.45;72.97
9059;BME280;4564;42.034;25.834;2023-02-21T01:48:17;100498.91;;;4.44;72.82
9059;BME280;4564;42.034;25.834;2023-02-21T01:51:03;100493.56;;;4.25;72.80
9059;BME280;4564;42.034;25.834;2023-02-21T01:53:49;100492.84;;;4.23;73.42
9059;BME280;4564;42.034;25.834;2023-02-21T01:56:33;100493.56;;;4.35;73.22
9059;BME280;4564;42.034;25.834;2023-02-21T01:59:18;100490.44;;;4.39;73.25
9059;BME280;4564;42.034;25.834;2023-02-21T02:02:03;100481.25;;;4.42;73.38
9059;BME280;4564;42.034;25.834;2023-02-21T02:04:49;100485.88;;;4.59;72.83
9059;BME280;4564;42.034;25.834;2023-02-21T02:07:34;100483.34;;;4.57;73.12
9059;BME280;4564;42.034;25.834;2023-02-21T02:10:20;100478.97;;;4.47;73.44
9059;BME280;4564;42.034;25.834;2023-02-21T02:13:18;100481.25;;;4.42;73.68
9059;BME280;4564;42.034;25.834;2023-02-21T02:15:48;100478.41;;;4.43;73.74
9059;BME280;4564;42.034;25.834;2023-02-21T02:18:30;100474.03;;;4.33;74.10
9059;BME280;4564;42.034;25.834;2023-02-21T02:26:58;100464.69;;;4.46;74.34
9059;BME280;4564;42.034;25.834;2023-02-21T02:29:32;100464.56;;;4.38;75.26
9059;BME280;4564;42.034;25.834;2023-02-21T02:32:09;100454.81;;;4.37;75.56
9059;BME280;4564;42.034;25.834;2023-02-21T02:34:46;100442.81;;;4.32;75.67
9059;BME280;4564;42.034;25.834;2023-02-21T02:37:17;100444.66;;;4.12;76.53
9059;BME280;4564;42.034;25.834;2023-02-21T02:39:47;100446.50;;;4.21;76.59
9059;BME280;4564;42.034;25.834;2023-02-21T02:42:19;100440.25;;;4.30;76.72
9059;BME280;4564;42.034;25.834;2023-02-21T02:44:50;100433.34;;;4.37;76.64
9059;BME280;4564;42.034;25.834;2023-02-21T02:47:21;100438.25;;;4.32;77.07
9059;BME280;4564;42.034;25.834;2023-02-21T02:49:49;100447.59;;;4.28;77.41
9059;BME280;4564;42.034;25.834;2023-02-21T02:52:16;100427.50;;;4.32;78.04
9059;BME280;4564;42.034;25.834;2023-02-21T02:54:43;100428.94;;;4.36;78.44
9059;BME280;4564;42.034;25.834;2023-02-21T02:57:10;100442.50;;;4.44;78.58
9059;BME280;4564;42.034;25.834;2023-02-21T02:59:38;100427.78;;;4.39;79.00
9059;BME280;4564;42.034;25.834;2023-02-21T03:02:11;100441.25;;;4.29;80.21
9059;BME280;4564;42.034;25.834;2023-02-21T03:04:53;100449.59;;;4.26;80.83
9059;BME280;4564;42.034;25.834;2023-02-21T03:07:27;100438.56;;;4.29;81.15
9059;BME280;4564;42.034;25.834;2023-02-21T03:09:59;100431.09;;;3.85;83.16
9059;BME280;4564;42.034;25.834;2023-02-21T03:12:31;100426.16;;;3.70;83.46
9059;BME280;4564;42.034;25.834;2023-02-21T03:14:59;100419.78;;;3.62;84.65
9059;BME280;4564;42.034;25.834;2023-02-21T03:17:28;100421.91;;;3.49;85.09
9059;BME280;4564;42.034;25.834;2023-02-21T03:19:59;100429.25;;;3.56;86.29
9059;BME280;4564;42.034;25.834;2023-02-21T03:22:27;100423.91;;;3.66;86.67
9059;BME280;4564;42.034;25.834;2023-02-21T03:24:55;100417.63;;;3.46;86.85
9059;BME280;4564;42.034;25.834;2023-02-21T03:27:23;100421.34;;;3.45;88.51
9059;BME280;4564;42.034;25.834;2023-02-21T03:29:51;100405.34;;;3.34;88.77
9059;BME280;4564;42.034;25.834;2023-02-21T03:32:19;100410.41;;;3.27;89.53
9059;BME280;4564;42.034;25.834;2023-02-21T03:34:46;100406.88;;;3.27;89.81
9059;BME280;4564;42.034;25.834;2023-02-21T03:37:18;100409.28;;;3.30;91.20
9059;BME280;4564;42.034;25.834;2023-02-21T03:39:45;100410.16;;;3.40;91.27
9059;BME280;4564;42.034;25.834;2023-02-21T03:42:12;100409.75;;;3.45;90.23
9059;BME280;4564;42.034;25.834;2023-02-21T03:44:38;100416.53;;;3.39;91.53
9059;BME280;4564;42.034;25.834;2023-02-21T03:47:05;100419.63;;;3.44;91.68
9059;BME280;4564;42.034;25.834;2023-02-21T03:49:31;100413.13;;;3.47;90.88
9059;BME280;4564;42.034;25.834;2023-02-21T03:51:58;100412.00;;;3.49;90.45
9059;BME280;4564;42.034;25.834;2023-02-21T03:54:26;100419.78;;;3.52;91.08
9059;BME280;4564;42.034;25.834;2023-02-21T03:56:52;100421.47;;;3.53;91.27
9059;BME280;4564;42.034;25.834;2023-02-21T03:59:19;100412.56;;;3.62;90.43
9059;BME280;4564;42.034;25.834;2023-02-21T04:01:46;100429.81;;;3.69;90.94
9059;BME280;4564;42.034;25.834;2023-02-21T04:04:12;100430.97;;;3.76;89.72
9059;BME280;4564;42.034;25.834;2023-02-21T04:06:39;100434.34;;;3.78;90.36
9059;BME280;4564;42.034;25.834;2023-02-21T04:09:05;100433.91;;;3.73;90.52
9059;BME280;4564;42.034;25.834;2023-02-21T04:11:33;100424.88;;;3.74;90.87
9059;BME280;4564;42.034;25.834;2023-02-21T04:14:00;100421.22;;;3.75;90.55
9059;BME280;4564;42.034;25.834;2023-02-21T04:16:28;100421.63;;;3.80;89.89
9059;BME280;4564;42.034;25.834;2023-02-21T04:18:55;100432.38;;;3.80;90.21
9059;BME280;4564;42.034;25.834;2023-02-21T04:21:22;100422.34;;;3.83;90.78
9059;BME280;4564;42.034;25.834;2023-02-21T04:23:49;100422.47;;;3.81;90.25
9059;BME280;4564;42.034;25.834;2023-02-21T04:26:15;100417.97;;;3.72;90.50
9059;BME280;4564;42.034;25.834;2023-02-21T04:28:43;100421.06;;;3.67;91.04
9059;BME280;4564;42.034;25.834;2023-02-21T04:31:12;100418.78;;;3.63;91.91
9059;BME280;4564;42.034;25.834;2023-02-21T04:33:39;100432.91;;;3.55;92.11
9059;BME280;4564;42.034;25.834;2023-02-21T04:36:06;100435.59;;;3.55;92.14
9059;BME280;4564;42.034;25.834;2023-02-21T04:38:32;100431.53;;;3.61;91.63
9059;BME280;4564;42.034;25.834;2023-02-21T04:40:59;100422.88;;;3.48;92.25
9059;BME280;4564;42.034;25.834;2023-02-21T04:43:26;100421.34;;;3.45;92.96
9059;BME280;4564;42.034;25.834;2023-02-21T04:45:54;100423.59;;;3.40;93.00
9059;BME280;4564;42.034;25.834;2023-02-21T04:48:20;100426.97;;;3.42;93.76
9059;BME280;4564;42.034;25.834;2023-02-21T04:50:47;100436.56;;;3.45;93.87
9059;BME280;4564;42.034;25.834;2023-02-21T04:53:14;100419.94;;;3.60;92.97
9059;BME280;4564;42.034;25.834;2023-02-21T04:55:40;100427.56;;;3.55;93.29
9059;BME280;4564;42.034;25.834;2023-02-21T04:58:07;100423.72;;;3.48;93.51
9059;BME280;4564;42.034;25.834;2023-02-21T05:00:33;100422.63;;;3.51;93.26
9059;BME280;4564;42.034;25.834;2023-02-21T05:03:01;100429.94;;;3.68;93.28
9059;BME280;4564;42.034;25.834;2023-02-21T05:05:28;100425.44;;;3.59;92.93
9059;BME280;4564;42.034;25.834;2023-02-21T05:07:55;100435.75;;;3.63;92.81
9059;BME280;4564;42.034;25.834;2023-02-21T05:10:21;100420.78;;;3.70;92.47
9059;BME280;4564;42.034;25.834;2023-02-21T05:12:48;100431.09;;;3.75;91.22
9059;BME280;4564;42.034;25.834;2023-02-21T05:15:15;100424.19;;;3.72;91.79
9059;BME280;4564;42.034;25.834;2023-02-21T05:17:41;100420.66;;;3.82;91.10
9059;BME280;4564;42.034;25.834;2023-02-21T05:20:10;100427.97;;;3.89;90.68
9059;BME280;4564;42.034;25.834;2023-02-21T05:22:37;100426.72;;;4.03;89.84
9059;BME280;4564;42.034;25.834;2023-02-21T05:25:05;100426.16;;;4.09;89.43
9059;BME280;4564;42.034;25.834;2023-02-21T05:27:31;100433.94;;;4.02;87.66
9059;BME280;4564;42.034;25.834;2023-02-21T05:29:58;100431.53;;;3.99;86.50
9059;BME280;4564;42.034;25.834;2023-02-21T05:32:25;100435.75;;;4.02;87.42
9059;BME280;4564;42.034;25.834;2023-02-21T05:34:53;100425.31;;;4.08;87.64
9059;BME280;4564;42.034;25.834;2023-02-21T05:37:21;100439.16;;;4.13;87.78
9059;BME280;4564;42.034;25.834;2023-02-21T05:39:48;100435.75;;;4.21;87.83
9059;BME280;4564;42.034;25.834;2023-02-21T05:42:15;100433.47;;;4.16;88.26
9059;BME280;4564;42.034;25.834;2023-02-21T05:44:42;100418.47;;;4.33;88.03
9059;BME280;4564;42.034;25.834;2023-02-21T05:47:09;100423.97;;;4.41;87.49
9059;BME280;4564;42.034;25.834;2023-02-21T05:49:36;100423.50;;;4.55;87.02
9059;BME280;4564;42.034;25.834;2023-02-21T05:52:02;100428.44;;;4.60;87.37
9059;BME280;4564;42.034;25.834;2023-02-21T05:54:31;100427.09;;;4.83;86.15
9059;BME280;4564;42.034;25.834;2023-02-21T05:56:58;100424.78;;;4.98;85.13
9059;BME280;4564;42.034;25.834;2023-02-21T05:59:24;100417.81;;;5.05;84.65
9059;BME280;4564;42.034;25.834;2023-02-21T06:01:51;100437.22;;;4.99;85.13
9059;BME280;4564;42.034;25.834;2023-02-21T06:04:17;100413.75;;;4.91;84.95
9059;BME280;4564;42.034;25.834;2023-02-21T06:06:44;100402.97;;;5.01;84.96
9059;BME280;4564;42.034;25.834;2023-02-21T06:09:11;100417.91;;;5.13;84.66
9059;BME280;4564;42.034;25.834;2023-02-21T06:11:39;100403.38;;;5.33;83.69
9059;BME280;4564;42.034;25.834;2023-02-21T06:14:06;100404.16;;;5.43;83.15
9059;BME280;4564;42.034;25.834;2023-02-21T06:16:33;100404.59;;;5.57;81.33
9059;BME280;4564;42.034;25.834;2023-02-21T06:19:01;100388.84;;;5.79;80.27
9059;BME280;4564;42.034;25.834;2023-02-21T06:21:27;100392.00;;;6.10;78.03
9059;BME280;4564;42.034;25.834;2023-02-21T06:23:54;100389.66;;;6.33;75.27
9059;BME280;4564;42.034;25.834;2023-02-21T06:26:21;100387.66;;;6.61;72.93
9059;BME280;4564;42.034;25.834;2023-02-21T06:28:49;100404.72;;;6.95;70.75
9059;BME280;4564;42.034;25.834;2023-02-21T06:31:16;100400.09;;;7.22;69.04
9059;BME280;4564;42.034;25.834;2023-02-21T06:33:43;100397.44;;;7.46;67.16
9059;BME280;4564;42.034;25.834;2023-02-21T06:36:11;100400.03;;;7.64;66.17
9059;BME280;4564;42.034;25.834;2023-02-21T06:38:37;100408.16;;;7.80;63.89
9059;BME280;4564;42.034;25.834;2023-02-21T06:41:04;100412.72;;;7.71;62.97
9059;BME280;4564;42.034;25.834;2023-02-21T06:43:31;100421.81;;;7.78;62.48
9059;BME280;4564;42.034;25.834;2023-02-21T06:45:59;100414.75;;;7.85;65.32
9059;BME280;4564;42.034;25.834;2023-02-21T06:48:25;100420.28;;;7.59;70.14
9059;BME280;4564;42.034;25.834;2023-02-21T06:50:52;100422.38;;;7.32;71.47
9059;BME280;4564;42.034;25.834;2023-02-21T06:53:19;100419.03;;;7.38;72.34
9059;BME280;4564;42.034;25.834;2023-02-21T06:55:45;100430.88;;;7.45;72.85
9059;BME280;4564;42.034;25.834;2023-02-21T06:58:12;100431.47;;;7.23;74.40
9059;BME280;4564;42.034;25.834;2023-02-21T07:00:39;100423.91;;;7.34;74.49
9059;BME280;4564;42.034;25.834;2023-02-21T07:03:07;100425.78;;;7.34;74.82
9059;BME280;4564;42.034;25.834;2023-02-21T07:05:33;100430.53;;;7.48;74.19
9059;BME280;4564;42.034;25.834;2023-02-21T07:08:02;100432.59;;;7.54;75.37
9059;BME280;4564;42.034;25.834;2023-02-21T07:10:29;100431.09;;;7.59;75.03
9059;BME280;4564;42.034;25.834;2023-02-21T07:12:56;100431.44;;;7.73;74.49
9059;BME280;4564;42.034;25.834;2023-02-21T07:15:22;100422.03;;;7.77;74.22
9059;BME280;4564;42.034;25.834;2023-02-21T07:17:49;100426.03;;;7.73;73.54
9059;BME280;4564;42.034;25.834;2023-02-21T07:20:17;100416.09;;;7.73;74.23
9059;BME280;4564;42.034;25.834;2023-02-21T07:22:44;100420.19;;;8.01;73.80
9059;BME280;4564;42.034;25.834;2023-02-21T07:25:13;100398.59;;;8.34;72.95
9059;BME280;4564;42.034;25.834;2023-02-21T07:27:39;100398.03;;;8.63;71.58
9059;BME280;4564;42.034;25.834;2023-02-21T07:30:07;100395.09;;;8.89;70.70
9059;BME280;4564;42.034;25.834;2023-02-21T07:32:33;100386.88;;;9.13;69.91
9059;BME280;4564;42.034;25.834;2023-02-21T07:35:00;100392.81;;;9.47;68.81
9059;BME280;4564;42.034;25.834;2023-02-21T07:37:28;100391.16;;;10.15;66.71
9059;BME280;4564;42.034;25.834;2023-02-21T07:39:55;100382.88;;;10.98;64.05
9059;BME280;4564;42.034;25.834;2023-02-21T07:42:21;100376.78;;;11.75;61.31
9059;BME280;4564;42.034;25.834;2023-02-21T07:44:48;100381.97;;;12.69;59.05
9059;BME280;4564;42.034;25.834;2023-02-21T07:47:14;100394.50;;;13.73;55.96
9059;BME280;4564;42.034;25.834;2023-02-21T07:49:41;100386.19;;;14.86;47.92
9059;BME280;4564;42.034;25.834;2023-02-21T07:52:08;100391.03;;;16.31;45.36
9059;BME280;4564;42.034;25.834;2023-02-21T07:54:36;100375.41;;;16.88;40.83
9059;BME280;4564;42.034;25.834;2023-02-21T07:57:03;100378.53;;;17.46;36.80
9059;BME280;4564;42.034;25.834;2023-02-21T07:59:30;100377.16;;;17.37;38.22
9059;BME280;4564;42.034;25.834;2023-02-21T08:01:56;100386.91;;;17.51;40.12
9059;BME280;4564;42.034;25.834;2023-02-21T08:04:23;100380.09;;;16.81;42.42
9059;BME280;4564;42.034;25.834;2023-02-21T08:06:50;100385.88;;;16.16;44.67
9059;BME280;4564;42.034;25.834;2023-02-21T08:09:16;100382.25;;;15.46;45.45
9059;BME280;4564;42.034;25.834;2023-02-21T08:11:44;100382.53;;;15.25;46.81
9059;BME280;4564;42.034;25.834;2023-02-21T08:14:11;100371.50;;;14.81;47.30
9059;BME280;4564;42.034;25.834;2023-02-21T08:16:38;100359.16;;;14.45;48.99
9059;BME280;4564;42.034;25.834;2023-02-21T08:19:04;100358.94;;;14.53;48.71
9059;BME280;4564;42.034;25.834;2023-02-21T08:21:32;100355.53;;;14.78;48.04
9059;BME280;4564;42.034;25.834;2023-02-21T08:23:59;100346.31;;;14.72;48.72
9059;BME280;4564;42.034;25.834;2023-02-21T08:26:25;100347.19;;;15.24;46.44
9059;BME280;4564;42.034;25.834;2023-02-21T08:28:53;100353.66;;;15.42;44.25
9059;BME280;4564;42.034;25.834;2023-02-21T08:31:20;100354.59;;;15.68;44.06
9059;BME280;4564;42.034;25.834;2023-02-21T08:33:47;100355.75;;;15.53;44.29
9059;BME280;4564;42.034;25.834;2023-02-21T08:36:14;100349.56;;;15.65;44.43
9059;BME280;4564;42.034;25.834;2023-02-21T08:38:41;100344.72;;;15.67;43.91
9059;BME280;4564;42.034;25.834;2023-02-21T08:41:07;100346.03;;;15.89;41.76
9059;BME280;4564;42.034;25.834;2023-02-21T08:43:35;100336.81;;;16.15;38.47
9059;BME280;4564;42.034;25.834;2023-02-21T08:46:03;100328.50;;;16.28;39.35
9059;BME280;4564;42.034;25.834;2023-02-21T08:48:29;100328.56;;;16.46;38.06
9059;BME280;4564;42.034;25.834;2023-02-21T08:50:56;100322.13;;;16.59;36.80
9059;BME280;4564;42.034;25.834;2023-02-21T08:53:22;100317.28;;;16.54;37.67
9059;BME280;4564;42.034;25.834;2023-02-21T08:55:49;100312.94;;;16.71;37.25
9059;BME280;4564;42.034;25.834;2023-02-21T08:58:16;100309.97;;;16.91;36.21
9059;BME280;4564;42.034;25.834;2023-02-21T09:00:42;100272.59;;;16.60;36.40
9059;BME280;4564;42.034;25.834;2023-02-21T09:03:10;100294.72;;;16.95;36.67
9059;BME280;4564;42.034;25.834;2023-02-21T09:05:37;100292.00;;;17.13;37.09
9059;BME280;4564;42.034;25.834;2023-02-21T09:08:04;100293.47;;;17.28;36.59
9059;BME280;4564;42.034;25.834;2023-02-21T09:10:34;100294.53;;;17.45;35.57
9059;BME280;4564;42.034;25.834;2023-02-21T09:13:00;100294.59;;;17.38;35.20
9059;BME280;4564;42.034;25.834;2023-02-21T09:15:27;100280.88;;;17.38;36.45
9059;BME280;4564;42.034;25.834;2023-02-21T09:17:54;100276.38;;;17.44;35.90
9059;BME280;4564;42.034;25.834;2023-02-21T09:20:23;100268.84;;;17.39;35.36
9059;BME280;4564;42.034;25.834;2023-02-21T09:22:50;100267.94;;;17.45;36.32
9059;BME280;4564;42.034;25.834;2023-02-21T09:25:17;100266.47;;;17.61;34.99
9059;BME280;4564;42.034;25.834;2023-02-21T09:27:44;100263.00;;;17.66;35.05
9059;BME280;4564;42.034;25.834;2023-02-21T09:30:12;100266.84;;;17.76;35.00
9059;BME280;4564;42.034;25.834;2023-02-21T09:32:39;100263.44;;;17.92;35.16
9059;BME280;4564;42.034;25.834;2023-02-21T09:35:06;100252.97;;;18.13;34.48
9059;BME280;4564;42.034;25.834;2023-02-21T09:37:37;100247.59;;;18.18;34.41
9059;BME280;4564;42.034;25.834;2023-02-21T09:40:04;100245.81;;;18.12;34.13
9059;BME280;4564;42.034;25.834;2023-02-21T09:42:33;100239.81;;;18.15;34.57
9059;BME280;4564;42.034;25.834;2023-02-21T09:45:01;100241.72;;;18.26;34.74
9059;BME280;4564;42.034;25.834;2023-02-21T09:47:28;100241.63;;;18.32;34.68
9059;BME280;4564;42.034;25.834;2023-02-21T09:49:57;100227.16;;;18.37;34.28
9059;BME280;4564;42.034;25.834;2023-02-21T09:52:26;100225.25;;;18.49;34.64
9059;BME280;4564;42.034;25.834;2023-02-21T09:54:57;100224.88;;;18.69;33.85
9059;BME280;4564;42.034;25.834;2023-02-21T09:57:25;100212.19;;;18.68;33.96
9059;BME280;4564;42.034;25.834;2023-02-21T09:59:52;100211.13;;;18.80;33.83
9059;BME280;4564;42.034;25.834;2023-02-21T10:02:22;100208.84;;;18.89;34.17
9059;BME280;4564;42.034;25.834;2023-02-21T10:04:56;100203.81;;;18.86;33.38
9059;BME280;4564;42.034;25.834;2023-02-21T10:07:28;100203.88;;;19.03;33.44
9059;BME280;4564;42.034;25.834;2023-02-21T10:10:00;100198.09;;;19.16;33.76
9059;BME280;4564;42.034;25.834;2023-02-21T10:12:30;100186.78;;;19.29;33.19
9059;BME280;4564;42.034;25.834;2023-02-21T10:15:03;100181.91;;;19.19;32.40
9059;BME280;4564;42.034;25.834;2023-02-21T10:17:40;100185.13;;;19.16;32.01
9059;BME280;4564;42.034;25.834;2023-02-21T10:20:12;100176.88;;;19.16;31.59
9059;BME280;4564;42.034;25.834;2023-02-21T10:22:42;100170.91;;;19.19;31.89
9059;BME280;4564;42.034;25.834;2023-02-21T10:25:19;100168.50;;;19.23;32.19
9059;BME280;4564;42.034;25.834;2023-02-21T10:27:47;100164.41;;;19.25;31.41
9059;BME280;4564;42.034;25.834;2023-02-21T10:30:19;100163.06;;;19.28;31.31
9059;BME280;4564;42.034;25.834;2023-02-21T10:32:50;100150.00;;;19.35;31.42
9059;BME280;4564;42.034;25.834;2023-02-21T10:35:18;100145.44;;;19.41;31.09
9059;BME280;4564;42.034;25.834;2023-02-21T10:37:45;100140.97;;;19.51;31.39
9059;BME280;4564;42.034;25.834;2023-02-21T10:40:19;100150.75;;;19.59;31.11
9059;BME280;4564;42.034;25.834;2023-02-21T10:42:48;100140.56;;;19.59;31.16
9059;BME280;4564;42.034;25.834;2023-02-21T10:45:18;100129.88;;;19.63;31.00
9059;BME280;4564;42.034;25.834;2023-02-21T10:47:48;100125.28;;;19.68;30.58
9059;BME280;4564;42.034;25.834;2023-02-21T10:53:00;100119.78;;;19.68;31.03
9059;BME280;4564;42.034;25.834;2023-02-21T10:55:28;100117.19;;;19.79;31.29
9059;BME280;4564;42.034;25.834;2023-02-21T10:57:55;100099.66;;;19.85;31.09
9059;BME280;4564;42.034;25.834;2023-02-21T11:00:23;100083.59;;;19.82;31.07
9059;BME280;4564;42.034;25.834;2023-02-21T11:02:52;100081.84;;;19.92;31.09
9059;BME280;4564;42.034;25.834;2023-02-21T11:05:20;100088.31;;;20.03;31.30
9059;BME280;4564;42.034;25.834;2023-02-21T11:07:54;100089.28;;;20.13;30.85
9059;BME280;4564;42.034;25.834;2023-02-21T11:10:28;100073.75;;;20.24;31.05
9059;BME280;4564;42.034;25.834;2023-02-21T11:13:00;100071.81;;;20.25;30.95
9059;BME280;4564;42.034;25.834;2023-02-21T11:15:26;100054.94;;;20.38;30.58
9059;BME280;4564;42.034;25.834;2023-02-21T11:18:01;100067.16;;;20.47;30.58
9059;BME280;4564;42.034;25.834;2023-02-21T11:20:28;100050.63;;;20.47;30.55
9059;BME280;4564;42.034;25.834;2023-02-21T11:22:54;100047.91;;;20.52;30.44
9059;BME280;4564;42.034;25.834;2023-02-21T11:25:22;100010.56;;;20.39;30.36
9059;BME280;4564;42.034;25.834;2023-02-21T11:28:04;100039.56;;;20.69;29.81
9059;BME280;4564;42.034;25.834;2023-02-21T11:30:33;100034.09;;;20.74;30.23
9059;BME280;4564;42.034;25.834;2023-02-21T11:33:01;100023.88;;;20.74;29.88
9059;BME280;4564;42.034;25.834;2023-02-21T11:35:31;100021.66;;;20.71;29.87
9059;BME280;4564;42.034;25.834;2023-02-21T11:37:59;100007.69;;;20.78;29.83
9059;BME280;4564;42.034;25.834;2023-02-21T11:40:27;100010.16;;;20.79;29.28
9059;BME280;4564;42.034;25.834;2023-02-21T11:45:43;100005.13;;;20.71;28.57
9059;BME280;4564;42.034;25.834;2023-02-21T11:48:15;99998.28;;;20.79;29.04
9059;BME280;4564;42.034;25.834;2023-02-21T11:50:45;99989.97;;;20.74;28.95
9059;BME280;4564;42.034;25.834;2023-02-21T11:53:16;99994.44;;;20.80;28.83
9059;BME280;4564;42.034;25.834;2023-02-21T11:55:48;99990.38;;;20.87;28.36
9059;BME280;4564;42.034;25.834;2023-02-21T11:58:19;99984.59;;;20.89;27.90
9059;BME280;4564;42.034;25.834;2023-02-21T12:00:49;99987.13;;;20.95;27.98
9059;BME280;4564;42.034;25.834;2023-02-21T12:03:33;99976.88;;;20.91;27.79
9059;BME280;4564;42.034;25.834;2023-02-21T12:06:02;99972.41;;;20.85;28.22
9059;BME280;4564;42.034;25.834;2023-02-21T12:11:29;99970.09;;;20.72;28.08
9059;BME280;4564;42.034;25.834;2023-02-21T12:14:02;99961.16;;;20.60;28.58
9059;BME280;4564;42.034;25.834;2023-02-21T12:16:36;99956.16;;;20.57;28.48
9059;BME280;4564;42.034;25.834;2023-02-21T12:19:12;99955.63;;;20.60;29.08
9059;BME280;4564;42.034;25.834;2023-02-21T12:21:49;99954.25;;;20.62;28.25
9059;BME280;4564;42.034;25.834;2023-02-21T12:24:23;99953.50;;;20.67;27.77
9059;BME280;4564;42.034;25.834;2023-02-21T12:26:54;99943.59;;;20.71;27.48
9059;BME280;4564;42.034;25.834;2023-02-21T12:29:30;99949.75;;;20.78;27.66
9059;BME280;4564;42.034;25.834;2023-02-21T12:32:11;99936.25;;;20.81;26.78
9059;BME280;4564;42.034;25.834;2023-02-21T12:34:43;99940.31;;;20.74;26.41
9059;BME280;4564;42.034;25.834;2023-02-21T12:37:18;99936.16;;;20.71;26.24
9059;BME280;4564;42.034;25.834;2023-02-21T12:39:50;99929.19;;;20.64;26.91
9059;BME280;4564;42.034;25.834;2023-02-21T12:42:23;99931.91;;;20.59;26.34
9059;BME280;4564;42.034;25.834;2023-02-21T12:44:55;99935.28;;;20.66;26.27
9059;BME280;4564;42.034;25.834;2023-02-21T12:47:29;99927.03;;;20.66;25.96
9059;BME280;4564;42.034;25.834;2023-02-21T12:50:02;99921.47;;;20.61;26.06
9059;BME280;4564;42.034;25.834;2023-02-21T12:52:31;99926.88;;;20.50;25.93
9059;BME280;4564;42.034;25.834;2023-02-21T12:55:00;99924.88;;;20.46;26.28
9059;BME280;4564;42.034;25.834;2023-02-21T12:57:30;99927.59;;;20.41;26.15
9059;BME280;4564;42.034;25.834;2023-02-21T13:00:02;99922.88;;;20.36;25.98
9059;BME280;4564;42.034;25.834;2023-02-21T13:02:35;99924.41;;;20.27;26.17
9059;BME280;4564;42.034;25.834;2023-02-21T13:05:06;99928.78;;;20.23;26.07
9059;BME280;4564;42.034;25.834;2023-02-21T13:07:38;99926.31;;;20.27;26.25
9059;BME280;4564;42.034;25.834;2023-02-21T13:10:11;99919.03;;;20.16;26.60
9059;BME280;4564;42.034;25.834;2023-02-21T13:12:42;99908.28;;;20.14;26.76
9059;BME280;4564;42.034;25.834;2023-02-21T13:15:15;99911.41;;;20.23;27.17
9059;BME280;4564;42.034;25.834;2023-02-21T13:17:47;99909.44;;;20.18;27.10
9059;BME280;4564;42.034;25.834;2023-02-21T13:20:16;99911.03;;;20.14;26.62
9059;BME280;4564;42.034;25.834;2023-02-21T13:25:52;99907.88;;;20.27;26.54
9059;BME280;4564;42.034;25.834;2023-02-21T13:28:21;99901.16;;;20.18;26.70
9059;BME280;4564;42.034;25.834;2023-02-21T13:30:49;99906.63;;;20.13;26.35
9059;BME280;4564;42.034;25.834;2023-02-21T13:36:18;99896.88;;;20.05;26.41
9059;BME280;4564;42.034;25.834;2023-02-21T13:38:46;99888.09;;;20.08;26.07
9059;BME280;4564;42.034;25.834;2023-02-21T13:41:22;99883.41;;;20.09;26.51
9059;BME280;4564;42.034;25.834;2023-02-21T13:43:51;99880.91;;;20.02;26.91
9059;BME280;4564;42.034;25.834;2023-02-21T13:46:22;99873.31;;;19.93;26.78
9059;BME280;4564;42.034;25.834;2023-02-21T13:51:45;99881.44;;;20.04;26.30